Time;durP1;ratioP1;P1;durP2;ratioP2;P2;SDS_P1;SDS_P2;PMS_P1;PMS_P2;Temp;Humidity;BMP_temperature;BMP_pressure;BME280_temperature;BME280_humidity;BME280_pressure;Samples;Min_cycle;Max_cycle;Signal;HPM_P1;HPM_P2
2023/03/26 00:00:43;;;;;;;24.55;5.35;;;;;;;10.14;100.00;100637.28;5186322;28;20038;-78
2023/03/26 00:03:16;;;;;;;25.25;5.38;;;;;;;10.01;100.00;100634.09;5180403;28;20030;-78
2023/03/26 00:05:48;;;;;;;31.13;6.25;;;;;;;10.03;100.00;100634.78;5183429;28;20022;-78
2023/03/26 00:08:19;;;;;;;26.55;5.78;;;;;;;9.95;100.00;100633.63;5180511;28;20047;-78
2023/03/26 00:10:50;;;;;;;29.90;6.72;;;;;;;9.92;100.00;100630.44;5185067;28;20384;-78
2023/03/26 00:13:21;;;;;;;27.10;5.43;;;;;;;9.88;100.00;100619.41;5182354;28;20080;-78
2023/03/26 00:15:53;;;;;;;29.02;5.88;;;;;;;9.75;100.00;100629.28;5185835;28;20500;-78
2023/03/26 00:18:29;;;;;;;25.20;6.13;;;;;;;9.72;100.00;100625.13;5185119;28;20481;-78
2023/03/26 00:21:05;;;;;;;28.80;5.22;;;;;;;9.69;100.00;100628.00;5185718;28;20035;-78
2023/03/26 00:23:37;;;;;;;21.80;4.97;;;;;;;9.69;100.00;100628.00;5183971;28;20035;-78
2023/03/26 00:26:09;;;;;;;24.10;5.68;;;;;;;9.68;100.00;100615.06;5181460;28;20033;-78
2023/03/26 00:28:42;;;;;;;32.17;5.80;;;;;;;9.75;100.00;100624.06;5184157;28;20038;-78
2023/03/26 00:31:13;;;;;;;27.55;6.10;;;;;;;9.96;100.00;100622.22;5181112;28;20034;-78
2023/03/26 00:33:46;;;;;;;26.48;6.03;;;;;;;9.84;100.00;100614.59;5181170;28;20496;-78
2023/03/26 00:36:18;;;;;;;24.85;5.53;;;;;;;9.89;100.00;100620.28;5188563;28;20034;-78
2023/03/26 00:38:51;;;;;;;21.98;5.40;;;;;;;9.91;100.00;100613.94;5193495;28;20030;-78
2023/03/26 00:41:24;;;;;;;19.30;4.78;;;;;;;9.91;100.00;100600.03;5186622;28;20026;-78
2023/03/26 00:43:58;;;;;;;24.73;5.20;;;;;;;9.59;100.00;100611.44;5184680;28;20022;-78
2023/03/26 00:46:30;;;;;;;24.52;6.10;;;;;;;9.46;100.00;100608.19;5186229;28;20035;-78
2023/03/26 00:49:02;;;;;;;27.95;5.43;;;;;;;9.39;100.00;100600.03;5185468;28;20022;-78
2023/03/26 00:51:36;;;;;;;18.40;5.50;;;;;;;9.41;100.00;100602.53;5183606;28;20443;-78
2023/03/26 00:54:07;;;;;;;;;;;;;;;10.07;100.00;100602.13;5188848;28;20290;-78
2023/03/26 00:56:38;;;;;;;22.83;5.72;;;;;;;9.42;100.00;100602.38;5187615;28;19913;-78
2023/03/26 00:59:10;;;;;;;29.92;5.20;;;;;;;9.37;100.00;100594.13;5185135;28;20026;-78
2023/03/26 01:01:43;;;;;;;19.27;5.55;;;;;;;9.38;100.00;100590.53;5188232;28;20421;-78
2023/03/26 01:04:29;;;;;;;24.38;6.63;;;;;;;9.56;100.00;100587.34;5186033;28;20034;-78
2023/03/26 01:07:08;;;;;;;25.35;5.45;;;;;;;9.48;100.00;100575.72;5185835;28;20026;-78
2023/03/26 01:09:44;;;;;;;29.40;6.05;;;;;;;9.26;100.00;100562.81;5183037;28;20058;-78
2023/03/26 01:12:23;;;;;;;26.73;5.88;;;;;;;9.33;100.00;100563.97;5202049;28;20022;-78
2023/03/26 01:14:59;;;;;;;23.42;5.35;;;;;;;9.20;100.00;100563.31;5183873;28;20539;-78
2023/03/26 01:17:36;;;;;;;23.05;5.18;;;;;;;9.15;100.00;100547.19;5182769;28;20093;-78
2023/03/26 01:20:25;;;;;;;23.95;5.72;;;;;;;9.62;100.00;100566.72;5183535;28;20487;-78
2023/03/26 01:23:04;;;;;;;25.65;5.60;;;;;;;9.36;100.00;100558.47;5186730;28;20030;-78
2023/03/26 01:25:43;;;;;;;23.83;5.80;;;;;;;9.25;100.00;100542.88;5183265;28;20027;-78
2023/03/26 01:28:17;;;;;;;25.15;4.80;;;;;;;9.17;100.00;100540.06;5186970;28;20056;-78
2023/03/26 01:31:02;;;;;;;22.70;5.07;;;;;;;9.22;100.00;100530.88;5181024;28;20113;-78
2023/03/26 01:33:46;;;;;;;21.67;4.45;;;;;;;9.22;100.00;100530.03;5181322;28;20445;-79
2023/03/26 01:36:26;;;;;;;26.50;5.63;;;;;;;9.19;100.00;100528.50;5187072;28;20041;-78
2023/03/26 01:39:17;;;;;;;21.58;5.35;;;;;;;9.26;100.00;100526.22;5181707;28;20487;-78
2023/03/26 01:42:09;;;;;;;28.90;5.68;;;;;;;9.23;100.00;100529.91;5184399;28;20030;-78
2023/03/26 01:44:49;;;;;;;30.00;5.32;;;;;;;9.20;100.00;100531.94;5184467;28;20022;-79
2023/03/26 01:47:21;;;;;;;26.48;5.00;;;;;;;9.17;100.00;100527.00;5186517;28;20088;-78
2023/03/26 01:49:52;;;;;;;25.40;5.03;;;;;;;9.11;100.00;100511.81;5184885;28;20470;-78
2023/03/26 01:52:25;;;;;;;21.80;5.45;;;;;;;9.18;100.00;100519.00;5181416;28;20054;-78
2023/03/26 01:54:56;;;;;;;20.87;4.87;;;;;;;9.29;100.00;100525.97;5183716;28;20073;-78
2023/03/26 01:57:37;;;;;;;25.92;5.30;;;;;;;9.36;100.00;100516.66;5180500;28;20700;-78
2023/03/26 02:00:19;;;;;;;22.67;5.07;;;;;;;9.15;100.00;100513.22;5181707;28;20042;-78
2023/03/26 02:03:18;;;;;;;20.38;5.05;;;;;;;9.55;100.00;100507.22;5186701;28;20026;-78
2023/03/26 02:06:08;;;;;;;18.40;4.28;;;;;;;9.46;100.00;100493.97;5182525;28;20038;-80
2023/03/26 02:09:04;;;;;;;28.02;5.13;;;;;;;9.77;100.00;100490.50;5182483;28;20034;-78
2023/03/26 02:11:39;;;;;;;19.98;4.63;;;;;;;9.11;100.00;100493.53;5182540;28;20035;-78
2023/03/26 02:14:12;;;;;;;19.60;4.82;;;;;;;8.99;100.00;100487.56;5181586;28;20030;-77
2023/03/26 02:16:46;;;;;;;20.27;4.30;;;;;;;9.12;100.00;100484.72;5185182;28;20031;-77
2023/03/26 02:19:20;;;;;;;21.45;4.88;;;;;;;8.89;100.00;100473.59;5187890;28;21491;-79
2023/03/26 02:21:51;;;;;;;26.85;5.38;;;;;;;8.85;100.00;100470.41;5182439;28;20030;-79
2023/03/26 02:24:22;;;;;;;28.20;5.80;;;;;;;8.88;100.00;100470.16;5184085;28;20076;-79
2023/03/26 02:26:54;;;;;;;30.25;5.53;;;;;;;8.84;100.00;100462.72;5182970;28;20508;-79
2023/03/26 02:29:26;;;;;;;24.02;5.00;;;;;;;8.92;100.00;100468.13;5185217;28;20479;-79
2023/03/26 02:31:57;;;;;;;22.70;4.50;;;;;;;9.00;100.00;100471.72;5187597;28;20440;-79
2023/03/26 02:34:29;;;;;;;20.45;4.65;;;;;;;8.90;100.00;100460.41;5187965;28;20031;-79
2023/03/26 02:37:00;;;;;;;22.77;5.15;;;;;;;8.93;100.00;100462.75;5186353;28;20018;-79
2023/03/26 02:39:32;;;;;;;21.85;5.15;;;;;;;8.91;100.00;100454.22;5184146;28;20034;-79
2023/03/26 02:42:03;;;;;;;23.50;4.90;;;;;;;8.97;100.00;100458.09;5184813;28;20049;-79
2023/03/26 02:44:34;;;;;;;20.15;4.70;;;;;;;9.01;100.00;100457.69;5186072;28;20023;-79
2023/03/26 02:47:06;;;;;;;24.00;6.05;;;;;;;9.08;100.00;100452.78;5188537;28;20022;-79
2023/03/26 02:49:37;;;;;;;19.70;5.22;;;;;;;9.04;100.00;100440.94;5187212;28;20101;-79
2023/03/26 02:52:08;;;;;;;20.88;4.38;;;;;;;9.10;100.00;100440.44;5184124;28;20053;-78
2023/03/26 02:54:39;;;;;;;21.73;4.28;;;;;;;9.04;100.00;100435.72;5185803;28;20062;-78
2023/03/26 02:57:11;;;;;;;23.77;4.78;;;;;;;9.07;100.00;100432.84;5182659;28;20030;-78
2023/03/26 02:59:45;;;;;;;18.38;4.82;;;;;;;9.12;100.00;100422.81;5182023;28;20022;-78
2023/03/26 03:02:17;;;;;;;22.15;4.88;;;;;;;8.94;100.00;100416.53;5181916;28;20026;-78
2023/03/26 03:04:48;;;;;;;20.80;4.05;;;;;;;9.00;100.00;100419.47;5183250;28;20038;-78
2023/03/26 03:07:21;;;;;;;24.25;5.00;;;;;;;9.00;100.00;100409.03;5187297;28;20074;-78
2023/03/26 03:09:52;;;;;;;17.88;4.85;;;;;;;8.92;100.00;100408.84;5183195;28;20097;-78
2023/03/26 03:12:24;;;;;;;18.73;4.72;;;;;;;8.91;100.00;100399.38;5183391;28;20027;-78
2023/03/26 03:14:55;;;;;;;23.23;4.65;;;;;;;8.91;100.00;100391.53;5187003;28;20034;-78
2023/03/26 03:17:26;;;;;;;22.55;4.85;;;;;;;8.81;100.00;100380.19;5183254;28;20030;-78
2023/03/26 03:19:58;;;;;;;24.98;4.90;;;;;;;8.97;100.00;100388.38;5185125;28;20030;-78
2023/03/26 03:22:29;;;;;;;22.73;4.55;;;;;;;8.92;100.00;100374.88;5182396;28;20109;-78
2023/03/26 03:25:01;;;;;;;19.48;4.30;;;;;;;8.94;100.00;100383.44;5184730;28;20033;-77
2023/03/26 03:27:33;;;;;;;22.67;5.13;;;;;;;9.04;100.00;100382.63;5184290;28;20425;-77
2023/03/26 03:30:05;;;;;;;21.85;4.75;;;;;;;9.05;100.00;100387.72;5181009;28;20054;-77
2023/03/26 03:32:37;;;;;;;19.27;4.28;;;;;;;8.91;100.00;100368.03;5181654;28;20018;-77
2023/03/26 03:35:09;;;;;;;20.17;4.32;;;;;;;8.93;100.00;100370.50;5184536;28;20028;-77
2023/03/26 03:37:40;;;;;;;18.13;4.30;;;;;;;8.93;100.00;100360.88;5179775;28;20033;-77
2023/03/26 03:40:12;;;;;;;22.63;4.50;;;;;;;9.00;100.00;100371.63;5182498;28;20031;-77
2023/03/26 03:42:43;;;;;;;12.80;3.20;;;;;;;8.96;100.00;100367.63;5181411;28;20136;-76
2023/03/26 03:45:14;;;;;;;17.63;3.50;;;;;;;9.08;100.00;100363.94;5184084;28;20030;-77
2023/03/26 03:47:46;;;;;;;20.63;3.72;;;;;;;9.02;100.00;100365.31;5186195;28;20365;-78
2023/03/26 03:50:17;;;;;;;19.70;3.42;;;;;;;9.09;100.00;100357.78;5180354;28;20027;-78
2023/03/26 03:52:49;;;;;;;20.65;3.70;;;;;;;9.18;100.00;100364.00;5182259;28;20113;-78
2023/03/26 03:55:22;;;;;;;17.58;4.00;;;;;;;9.17;100.00;100357.13;5185971;28;20464;-78
2023/03/26 03:57:55;;;;;;;22.85;4.72;;;;;;;9.13;100.00;100340.88;5184966;28;20049;-78
2023/03/26 04:00:27;;;;;;;15.68;3.80;;;;;;;9.27;100.00;100344.88;5182512;28;20058;-78
2023/03/26 04:02:58;;;;;;;14.77;3.67;;;;;;;9.32;100.00;100334.88;5185031;28;20040;-77
2023/03/26 04:05:29;;;;;;;16.08;3.47;;;;;;;9.33;100.00;100331.28;5183703;28;20041;-77
2023/03/26 04:08:00;;;;;;;11.05;3.55;;;;;;;9.35;100.00;100324.13;5182944;28;20029;-77
2023/03/26 04:10:32;;;;;;;15.07;4.85;;;;;;;9.35;100.00;100320.69;5187586;28;20037;-77
2023/03/26 04:13:03;;;;;;;12.52;3.45;;;;;;;9.39;100.00;100314.22;5185383;28;20106;-77
2023/03/26 04:15:35;;;;;;;15.30;3.85;;;;;;;9.38;100.00;100309.97;5187315;28;20041;-77
2023/03/26 04:18:09;;;;;;;17.00;3.60;;;;;;;9.31;100.00;100301.00;5186567;28;20023;-77
2023/03/26 04:20:45;;;;;;;12.57;2.80;;;;;;;9.17;100.00;100291.78;5187506;28;20026;-77
2023/03/26 04:23:17;;;;;;;19.50;4.28;;;;;;;9.16;100.00;100293.53;5186662;28;20026;-76
2023/03/26 04:25:52;;;;;;;15.25;3.72;;;;;;;9.29;100.00;100282.84;5186835;28;20400;-77
2023/03/26 04:28:25;;;;;;;11.65;3.08;;;;;;;9.35;100.00;100286.69;5186892;28;20050;-77
2023/03/26 04:31:05;;;;;;;16.15;3.20;;;;;;;9.40;100.00;100280.13;5185249;28;20031;-76
2023/03/26 04:33:38;;;;;;;15.68;3.78;;;;;;;9.29;100.00;100271.56;5183816;28;20057;-76
2023/03/26 04:36:10;;;;;;;12.80;3.75;;;;;;;9.34;100.00;100266.75;5188244;28;20038;-77
2023/03/26 04:38:48;;;;;;;14.02;4.00;;;;;;;9.34;100.00;100256.31;5185729;28;20531;-77
2023/03/26 04:41:21;;;;;;;12.35;2.83;;;;;;;9.27;100.00;100262.06;5187185;28;20039;-76
2023/03/26 04:43:53;;;;;;;14.43;3.83;;;;;;;9.28;100.00;100252.47;5187247;28;20026;-77
2023/03/26 04:46:24;;;;;;;16.90;3.75;;;;;;;9.34;100.00;100249.28;5185663;28;20035;-77
2023/03/26 04:48:55;;;;;;;13.63;3.45;;;;;;;9.35;100.00;100245.69;5186521;28;20660;-76
2023/03/26 04:51:37;;;;;;;14.27;3.55;;;;;;;9.45;100.00;100235.25;5183865;28;20027;-77
2023/03/26 04:54:11;;;;;;;14.90;3.33;;;;;;;9.35;100.00;100223.97;5184544;28;20027;-77
2023/03/26 04:56:55;;;;;;;13.65;3.30;;;;;;;9.48;100.00;100227.13;5182273;28;20042;-77
2023/03/26 04:59:33;;;;;;;11.05;2.78;;;;;;;9.41;100.00;100223.41;5185710;28;20026;-77
2023/03/26 05:02:05;;;;;;;13.25;3.30;;;;;;;9.37;100.00;100217.66;5186752;28;20362;-77
2023/03/26 05:04:39;;;;;;;11.93;2.85;;;;;;;9.35;100.00;100221.34;5185580;28;20117;-77
2023/03/26 05:07:17;;;;;;;9.57;2.90;;;;;;;9.42;100.00;100219.84;5186853;28;20137;-77
2023/03/26 05:09:49;;;;;;;12.00;3.30;;;;;;;9.33;100.00;100211.03;5184175;28;20080;-77
2023/03/26 05:12:20;;;;;;;12.85;3.28;;;;;;;9.12;100.00;100171.13;5182488;28;20070;-77
2023/03/26 05:14:52;;;;;;;17.92;3.63;;;;;;;9.34;100.00;100204.03;5183732;28;20039;-77
2023/03/26 05:17:23;;;;;;;12.95;3.35;;;;;;;9.41;100.00;100199.88;5185114;28;20479;-77
2023/03/26 05:19:55;;;;;;;13.00;3.53;;;;;;;9.43;100.00;100203.19;5184081;28;20023;-77
2023/03/26 05:22:26;;;;;;;13.43;3.05;;;;;;;9.42;100.00;100194.50;5189234;28;20031;-77
2023/03/26 05:24:57;;;;;;;13.00;3.10;;;;;;;9.49;100.00;100206.06;5185483;28;20029;-78
2023/03/26 05:27:29;;;;;;;11.85;3.85;;;;;;;9.34;100.00;100193.56;5182321;28;20022;-78
2023/03/26 05:30:01;;;;;;;15.60;2.95;;;;;;;9.39;100.00;100192.16;5184658;28;20058;-77
2023/03/26 05:32:33;;;;;;;15.07;2.95;;;;;;;9.35;100.00;100190.78;5184356;28;20065;-78
2023/03/26 05:35:06;;;;;;;13.15;3.40;;;;;;;9.40;100.00;100179.94;5184421;28;20023;-77
2023/03/26 05:37:37;;;;;;;12.95;3.05;;;;;;;9.48;100.00;100174.84;5182521;28;20523;-77
2023/03/26 05:40:11;;;;;;;17.70;4.15;;;;;;;9.37;100.00;100161.91;5182914;28;20023;-77
2023/03/26 05:42:44;;;;;;;;;;;;;;;10.15;100.00;100170.38;5184423;28;20038;-77
2023/03/26 05:45:15;;;;;;;14.82;3.17;;;;;;;9.55;100.00;100172.50;5186650;28;19964;-77
2023/03/26 05:47:48;;;;;;;12.80;3.50;;;;;;;9.54;100.00;100166.41;5183813;28;20496;-77
2023/03/26 05:50:20;;;;;;;14.75;3.90;;;;;;;9.54;100.00;100161.19;5185979;28;20027;-77
2023/03/26 05:52:51;;;;;;;14.88;3.72;;;;;;;9.47;100.00;100153.09;5184646;28;20559;-77
2023/03/26 05:55:22;;;;;;;11.65;3.20;;;;;;;9.57;100.00;100160.91;5183131;28;20492;-77
2023/03/26 05:57:54;;;;;;;14.50;3.50;;;;;;;9.63;100.00;100146.47;5187775;28;20110;-77
2023/03/26 06:00:26;;;;;;;10.40;3.08;;;;;;;9.60;100.00;100134.50;5184498;28;20037;-77
2023/03/26 06:02:57;;;;;;;14.73;3.72;;;;;;;9.72;100.00;100153.47;5185064;28;20042;-77
2023/03/26 06:05:36;;;;;;;17.30;3.58;;;;;;;9.58;100.00;100135.59;5188170;28;20045;-77
2023/03/26 06:08:07;;;;;;;13.13;3.40;;;;;;;9.50;100.00;100133.69;5188196;28;20374;-77
2023/03/26 06:10:39;;;;;;;15.95;3.35;;;;;;;9.48;100.00;100133.00;5183606;28;20037;-77
2023/03/26 06:13:12;;;;;;;16.38;4.45;;;;;;;9.56;100.00;100127.06;5180054;28;20030;-77
2023/03/26 06:15:43;;;;;;;12.23;3.53;;;;;;;9.62;100.00;100129.97;5182633;28;20535;-77
2023/03/26 06:18:15;;;;;;;11.48;3.13;;;;;;;9.73;100.00;100129.75;5187187;28;20029;-77
2023/03/26 06:20:46;;;;;;;18.70;3.70;;;;;;;9.67;100.00;100119.06;5186383;28;20038;-77
2023/03/26 06:23:18;;;;;;;10.88;3.50;;;;;;;9.82;100.00;100127.28;5183214;28;20041;-77
2023/03/26 06:25:49;;;;;;;11.70;3.70;;;;;;;9.71;100.00;100118.63;5184052;28;20097;-77
2023/03/26 06:28:21;;;;;;;15.02;3.80;;;;;;;9.67;100.00;100122.50;5181104;28;20038;-77
2023/03/26 06:30:57;;;;;;;9.38;3.38;;;;;;;9.69;100.00;100122.34;5180731;28;20150;-76
2023/03/26 06:33:29;;;;;;;12.15;3.53;;;;;;;9.68;100.00;100126.75;5186887;28;20046;-76
2023/03/26 06:36:02;;;;;;;12.57;3.28;;;;;;;9.74;100.00;100113.13;5181042;28;20042;-76
2023/03/26 06:38:33;;;;;;;10.52;2.90;;;;;;;9.72;100.00;100116.84;5183757;28;20026;-76
2023/03/26 06:41:05;;;;;;;15.10;3.65;;;;;;;9.88;100.00;100126.69;5182011;28;20037;-76
2023/03/26 06:43:37;;;;;;;14.43;3.28;;;;;;;9.72;100.00;100122.06;5184445;28;20019;-76
2023/03/26 06:46:10;;;;;;;13.10;3.17;;;;;;;9.74;100.00;100120.97;5183779;28;20370;-76
2023/03/26 06:48:41;;;;;;;14.60;3.65;;;;;;;9.75;100.00;100127.03;5178841;28;20019;-76
2023/03/26 06:51:13;;;;;;;14.98;4.20;;;;;;;9.64;100.00;100120.16;5183544;28;20030;-77
2023/03/26 06:53:44;;;;;;;14.98;3.63;;;;;;;9.68;100.00;100121.53;5184652;28;20483;-77
2023/03/26 06:56:16;;;;;;;11.82;3.03;;;;;;;9.68;100.00;100118.91;5183467;28;20033;-77
2023/03/26 06:58:47;;;;;;;12.55;3.45;;;;;;;9.65;100.00;100110.53;5181267;28;20071;-77
2023/03/26 07:01:18;;;;;;;14.75;3.33;;;;;;;9.79;100.00;100127.56;5182961;28;20046;-77
2023/03/26 07:03:49;;;;;;;14.52;3.40;;;;;;;9.58;100.00;100115.50;5180631;28;20026;-77
2023/03/26 07:06:21;;;;;;;13.18;3.67;;;;;;;9.65;100.00;100121.00;5180572;28;20034;-77
2023/03/26 07:08:54;;;;;;;16.10;4.53;;;;;;;9.65;100.00;100124.41;5178653;28;20022;-77
2023/03/26 07:11:25;;;;;;;13.30;3.88;;;;;;;9.67;100.00;100126.91;5181334;28;20038;-77
2023/03/26 07:13:58;;;;;;;16.65;4.40;;;;;;;9.62;100.00;100110.81;5179453;28;20081;-77
2023/03/26 07:16:29;;;;;;;12.50;3.88;;;;;;;9.69;100.00;100117.13;5178676;28;20026;-77
2023/03/26 07:19:00;;;;;;;14.98;4.40;;;;;;;9.61;100.00;100101.31;5182190;28;20559;-77
2023/03/26 07:21:32;;;;;;;12.30;3.25;;;;;;;9.69;100.00;100104.84;5184161;28;20026;-76
2023/03/26 07:24:04;;;;;;;14.55;4.38;;;;;;;9.78;100.00;100111.03;5180077;28;20460;-77
2023/03/26 07:27:01;;;;;;;12.88;3.40;;;;;;;9.71;100.00;100099.50;5181640;28;20049;-77
2023/03/26 07:29:51;;;;;;;10.45;3.38;;;;;;;9.84;100.00;100099.19;5178948;28;20558;-77
2023/03/26 07:32:35;;;;;;;15.02;3.58;;;;;;;9.72;100.00;100106.38;5180124;28;20142;-77
2023/03/26 07:35:16;;;;;;;11.98;3.88;;;;;;;9.81;100.00;100099.44;5179174;28;20389;-77
2023/03/26 07:38:28;;;;;;;10.88;3.10;;;;;;;10.07;100.00;100094.38;5181850;28;20034;-77
2023/03/26 07:41:18;;;;;;;10.98;3.25;;;;;;;10.04;100.00;100090.28;5179627;28;20034;-77
2023/03/26 07:44:11;;;;;;;9.88;3.35;;;;;;;10.03;100.00;100087.81;5180674;28;20110;-77
2023/03/26 07:46:43;;;;;;;10.00;3.17;;;;;;;9.93;100.00;100090.47;5180740;28;20030;-77
2023/03/26 07:49:16;;;;;;;10.38;3.45;;;;;;;10.01;100.00;100079.28;5182535;28;20547;-77
2023/03/26 07:51:48;;;;;;;10.80;3.63;;;;;;;9.97;100.00;100081.38;5180946;28;20030;-77
2023/03/26 07:54:19;;;;;;;11.15;3.50;;;;;;;9.97;100.00;100090.03;5180784;28;20044;-77
2023/03/26 07:56:58;;;;;;;10.75;3.38;;;;;;;10.05;100.00;100076.22;5179951;28;20030;-77
2023/03/26 07:59:35;;;;;;;11.38;3.88;;;;;;;9.94;100.00;100074.63;5184263;28;20029;-77
2023/03/26 08:02:45;;;;;;;12.18;3.85;;;;;;;10.24;100.00;100086.59;5181513;28;20084;-77
2023/03/26 08:05:27;;;;;;;9.15;3.10;;;;;;;10.05;100.00;100075.41;5179695;28;20033;-77
2023/03/26 08:08:07;;;;;;;14.52;3.45;;;;;;;10.02;100.00;100080.94;5177981;28;20029;-77
2023/03/26 08:11:08;;;;;;;12.98;3.72;;;;;;;10.36;100.00;100070.72;5178608;28;20053;-77
2023/03/26 08:13:52;;;;;;;12.43;4.00;;;;;;;10.40;100.00;100075.50;5176109;28;20070;-77
2023/03/26 08:16:30;;;;;;;11.38;3.70;;;;;;;10.11;100.00;100072.19;5179082;28;20046;-76
2023/03/26 08:19:25;;;;;;;12.80;3.45;;;;;;;9.95;100.00;100064.97;5180433;28;20416;-76
2023/03/26 08:22:28;;;;;;;10.85;3.63;;;;;;;10.29;100.00;100073.09;5179184;28;20465;-76
2023/03/26 08:25:17;;;;;;;14.23;3.53;;;;;;;10.34;100.00;100075.25;5178374;28;20049;-77
2023/03/26 08:28:20;;;;;;;9.90;2.90;;;;;;;10.44;100.00;100069.00;5180203;28;20034;-77
2023/03/26 08:30:53;;;;;;;8.40;3.10;;;;;;;10.08;100.00;100064.66;5182209;28;20473;-76
2023/03/26 08:33:26;;;;;;;9.15;3.00;;;;;;;10.10;100.00;100066.13;5177797;28;20378;-77
2023/03/26 08:35:58;;;;;;;10.00;3.78;;;;;;;10.27;100.00;100063.75;5178856;28;20027;-76
2023/03/26 08:38:29;;;;;;;9.13;2.90;;;;;;;10.15;100.00;100069.16;5181038;28;20045;-76
2023/03/26 08:41:10;;;;;;;9.57;2.90;;;;;;;10.44;100.00;100061.13;5178245;28;20022;-76
2023/03/26 08:44:14;;;;;;;12.95;4.05;;;;;;;10.50;100.00;100069.41;5179110;28;20061;-76
2023/03/26 08:47:39;;;;;;;9.32;2.83;;;;;;;10.64;100.00;100067.06;5182610;28;20482;-76
2023/03/26 08:50:42;;;;;;;10.52;3.42;;;;;;;10.57;100.00;100067.78;5177706;28;20033;-76
2023/03/26 08:53:40;;;;;;;13.00;4.05;;;;;;;10.32;100.00;100067.56;5179822;28;20050;-76
2023/03/26 08:56:30;;;;;;;10.38;3.08;;;;;;;10.17;100.00;100063.75;5183023;28;20147;-76
2023/03/26 08:59:18;;;;;;;13.18;3.80;;;;;;;10.46;100.00;100050.53;5183422;28;20058;-76
2023/03/26 09:02:08;;;;;;;12.98;3.22;;;;;;;10.34;100.00;100063.00;5183759;28;20034;-76
2023/03/26 09:05:04;;;;;;;9.45;3.03;;;;;;;10.12;100.00;100055.53;5185278;28;20026;-76
2023/03/26 09:08:06;;;;;;;12.93;3.92;;;;;;;10.32;100.00;100049.25;5183452;28;20031;-76
2023/03/26 09:11:14;;;;;;;10.32;3.92;;;;;;;10.36;100.00;100053.19;5184426;28;20065;-76
2023/03/26 09:14:19;;;;;;;10.65;4.13;;;;;;;10.44;100.00;100057.69;5182259;28;20045;-76
2023/03/26 09:17:27;;;;;;;7.35;3.88;;;;;;;10.44;100.00;100049.84;5182833;28;20097;-76
2023/03/26 09:20:40;;;;;;;11.05;4.05;;;;;;;10.50;100.00;100051.88;5181973;28;20053;-76
2023/03/26 09:23:36;;;;;;;10.20;3.80;;;;;;;10.54;100.00;100055.03;5183295;28;20026;-76
2023/03/26 09:26:19;;;;;;;13.27;3.78;;;;;;;10.39;100.00;100052.91;5182204;28;20031;-76
2023/03/26 09:29:22;;;;;;;12.10;4.13;;;;;;;10.47;100.00;100052.16;5184147;28;20047;-76
2023/03/26 09:31:59;;;;;;;7.28;3.10;;;;;;;10.31;100.00;100052.84;5183075;28;20039;-76
2023/03/26 09:34:52;;;;;;;11.52;3.08;;;;;;;10.24;100.00;100049.13;5182007;28;20030;-76
2023/03/26 09:37:33;;;;;;;14.13;3.55;;;;;;;10.34;100.00;100051.69;5183465;28;20038;-75
2023/03/26 09:40:21;;;;;;;14.40;4.40;;;;;;;10.42;100.00;100050.00;5190492;28;20026;-76
2023/03/26 09:43:02;;;;;;;9.23;3.10;;;;;;;10.31;100.00;100047.59;5191847;28;20033;-76
2023/03/26 09:45:50;;;;;;;8.88;3.25;;;;;;;10.39;100.00;100050.28;5186661;28;20396;-75
2023/03/26 09:48:43;;;;;;;11.40;3.45;;;;;;;10.53;100.00;100050.75;5179262;28;20026;-75
2023/03/26 09:51:38;;;;;;;8.50;2.42;;;;;;;10.40;100.00;100054.56;5181614;28;20038;-75
2023/03/26 09:54:30;;;;;;;7.40;3.47;;;;;;;10.49;100.00;100052.81;5187210;28;20292;-75
2023/03/26 09:57:28;;;;;;;5.90;2.28;;;;;;;10.28;100.00;100029.56;5197263;28;20026;-76
2023/03/26 10:00:25;;;;;;;5.75;1.95;;;;;;;10.45;100.00;100054.09;5177461;28;20046;-76
2023/03/26 10:03:17;;;;;;;8.23;2.20;;;;;;;10.54;100.00;100057.66;5181988;28;20023;-76
2023/03/26 10:05:51;;;;;;;6.07;2.35;;;;;;;10.28;100.00;100057.53;5184457;28;20026;-76
2023/03/26 10:08:40;;;;;;;6.00;2.35;;;;;;;10.24;100.00;100062.22;5182730;28;20080;-76
2023/03/26 10:11:24;;;;;;;6.65;2.20;;;;;;;10.38;100.00;100061.75;5178097;28;20073;-76
2023/03/26 10:14:20;;;;;;;6.20;2.22;;;;;;;10.47;100.00;100062.66;5179893;28;20125;-76
2023/03/26 10:17:01;;;;;;;5.85;2.45;;;;;;;10.36;100.00;100068.09;5177748;28;20045;-76
2023/03/26 10:19:53;;;;;;;6.63;2.00;;;;;;;10.40;100.00;100062.41;5183185;28;20047;-76
2023/03/26 10:22:44;;;;;;;5.50;2.00;;;;;;;10.28;100.00;100065.41;5184663;28;20125;-76
2023/03/26 10:25:38;;;;;;;6.68;1.65;;;;;;;10.16;100.00;100067.38;5187012;28;20030;-76
2023/03/26 10:28:29;;;;;;;5.70;2.03;;;;;;;10.32;100.00;100064.13;5183552;28;20047;-76
2023/03/26 10:31:25;;;;;;;5.03;2.22;;;;;;;10.36;100.00;100065.47;5178778;28;20403;-76
2023/03/26 10:34:18;;;;;;;5.25;1.60;;;;;;;10.28;100.00;100073.25;5184168;28;20494;-76
2023/03/26 10:36:49;;;;;;;5.70;2.40;;;;;;;10.33;100.00;100082.28;5176973;28;20038;-76
2023/03/26 10:39:27;;;;;;;3.72;1.65;;;;;;;10.33;100.00;100073.63;5181854;28;20045;-76
2023/03/26 10:42:31;;;;;;;5.47;1.60;;;;;;;10.44;100.00;100071.63;5182022;28;20034;-76
2023/03/26 10:45:05;;;;;;;;;;;;;;;11.05;100.00;100074.44;5179170;28;20061;-76
2023/03/26 10:48:14;;;;;;;6.40;1.85;;;;;;;10.70;100.00;100081.38;5178407;28;20016;-76
2023/03/26 10:51:07;;;;;;;4.82;1.95;;;;;;;10.86;100.00;100081.50;5185091;28;20571;-75
2023/03/26 10:53:59;;;;;;;5.55;1.92;;;;;;;10.88;100.00;100082.19;5179217;28;20417;-75
2023/03/26 10:56:44;;;;;;;4.05;1.50;;;;;;;10.55;100.00;100078.44;5184183;28;20045;-75
2023/03/26 10:59:16;;;;;;;4.50;1.80;;;;;;;10.40;100.00;100072.06;5182163;28;21568;-75
2023/03/26 11:01:50;;;;;;;4.85;1.58;;;;;;;10.48;100.00;100082.63;5179656;28;20092;-75
2023/03/26 11:04:48;;;;;;;2.95;1.30;;;;;;;10.74;100.00;100087.13;5182972;28;20038;-75
2023/03/26 11:07:44;;;;;;;4.20;1.35;;;;;;;10.76;100.00;100085.16;5183001;28;20420;-75
2023/03/26 11:10:38;;;;;;;3.13;1.00;;;;;;;10.61;100.00;100084.88;5179922;28;20026;-75
2023/03/26 11:13:15;;;;;;;;;;;;;;;11.30;100.00;100092.03;5181523;28;20034;-76
2023/03/26 11:16:08;;;;;;;3.10;1.05;;;;;;;10.73;100.00;100095.97;5180117;28;20391;-76
2023/03/26 11:18:50;;;;;;;4.38;1.23;;;;;;;10.84;100.00;100093.94;5182682;28;20433;-76
2023/03/26 11:21:41;;;;;;;2.95;0.90;;;;;;;10.95;100.00;100098.97;5182098;28;20035;-76
2023/03/26 11:24:29;;;;;;;2.45;0.90;;;;;;;10.80;100.00;100097.84;5182258;28;20539;-76
2023/03/26 11:27:12;;;;;;;2.63;0.90;;;;;;;10.78;100.00;100098.94;5182703;28;20469;-76
2023/03/26 11:29:50;;;;;;;2.00;1.00;;;;;;;10.84;100.00;100103.59;5181976;28;20053;-76
2023/03/26 11:32:33;;;;;;;2.33;0.98;;;;;;;10.82;100.00;100101.13;5182170;28;20038;-76
2023/03/26 11:35:08;;;;;;;;;;;;;;;11.55;100.00;100110.53;5182386;28;20038;-76
2023/03/26 11:37:57;;;;;;;3.03;1.20;;;;;;;11.17;100.00;100108.16;5182827;28;20008;-76
2023/03/26 11:40:40;;;;;;;2.38;1.15;;;;;;;11.05;100.00;100095.41;5184880;28;20101;-76
2023/03/26 11:43:13;;;;;;;2.50;0.90;;;;;;;11.03;100.00;100106.06;5183217;28;20086;-76
2023/03/26 11:45:46;;;;;;;;;;;;;;;11.83;100.00;100106.81;5180937;28;20027;-76
2023/03/26 11:48:26;;;;;;;1.98;1.10;;;;;;;11.20;100.00;100112.25;5183135;28;19918;-76
2023/03/26 11:51:03;;;;;;;5.22;1.35;;;;;;;11.21;100.00;100106.03;5189848;28;20065;-76
2023/03/26 11:53:38;;;;;;;3.85;1.48;;;;;;;11.14;100.00;100121.56;5182658;28;20502;-76
2023/03/26 11:56:26;;;;;;;4.05;1.45;;;;;;;11.31;100.00;100091.03;5182083;28;20054;-76
2023/03/26 11:59:11;;;;;;;2.95;1.60;;;;;;;11.47;100.00;100121.78;5181785;28;20390;-76
2023/03/26 12:01:54;;;;;;;2.97;1.30;;;;;;;11.37;100.00;100118.47;5179787;28;20040;-76
2023/03/26 12:04:32;;;;;;;2.92;1.30;;;;;;;11.22;100.00;100115.56;5184175;28;20026;-76
2023/03/26 12:07:42;;;;;;;3.10;1.50;;;;;;;11.31;100.00;100122.50;5183719;28;20042;-76
2023/03/26 12:10:25;;;;;;;3.83;1.27;;;;;;;11.29;100.00;100123.63;5178378;28;20049;-77